sensor_id;sensor_type;location;lat;lon;timestamp;temperature;humidity
19437;DHT22;9854;50.968;4.168;2022-12-10T00:00:37;1.20;99.90
19437;DHT22;9854;50.968;4.168;2022-12-10T00:03:03;1.40;99.90
19437;DHT22;9854;50.968;4.168;2022-12-10T00:05:29;1.20;99.90
19437;DHT22;9854;50.968;4.168;2022-12-10T00:07:55;1.40;99.90
19437;DHT22;9854;50.968;4.168;2022-12-10T00:10:21;1.80;99.90
19437;DHT22;9854;50.968;4.168;2022-12-10T00:12:46;1.90;99.90
19437;DHT22;9854;50.968;4.168;2022-12-10T00:15:12;1.60;99.90
19437;DHT22;9854;50.968;4.168;2022-12-10T00:17:38;1.60;99.90
19437;DHT22;9854;50.968;4.168;2022-12-10T00:20:03;1.60;99.90
19437;DHT22;9854;50.968;4.168;2022-12-10T00:22:29;1.10;99.90
19437;DHT22;9854;50.968;4.168;2022-12-10T00:24:55;1.00;99.90
19437;DHT22;9854;50.968;4.168;2022-12-10T00:27:20;0.90;99.90
19437;DHT22;9854;50.968;4.168;2022-12-10T00:29:46;1.10;99.90
19437;DHT22;9854;50.968;4.168;2022-12-10T00:32:11;1.10;99.90
19437;DHT22;9854;50.968;4.168;2022-12-10T00:34:37;1.20;99.90
19437;DHT22;9854;50.968;4.168;2022-12-10T00:37:03;1.60;99.90
19437;DHT22;9854;50.968;4.168;2022-12-10T00:39:28;1.40;99.90
19437;DHT22;9854;50.968;4.168;2022-12-10T00:41:54;1.10;99.90
19437;DHT22;9854;50.968;4.168;2022-12-10T00:44:20;1.00;99.90
19437;DHT22;9854;50.968;4.168;2022-12-10T00:46:45;1.20;99.90
19437;DHT22;9854;50.968;4.168;2022-12-10T00:49:12;1.50;99.90
19437;DHT22;9854;50.968;4.168;2022-12-10T00:51:38;1.60;99.90
19437;DHT22;9854;50.968;4.168;2022-12-10T00:54:03;1.90;99.90
19437;DHT22;9854;50.968;4.168;2022-12-10T00:56:31;1.70;99.90
19437;DHT22;9854;50.968;4.168;2022-12-10T00:58:58;1.60;99.90
19437;DHT22;9854;50.968;4.168;2022-12-10T01:01:27;1.40;99.90
19437;DHT22;9854;50.968;4.168;2022-12-10T01:03:56;1.30;99.90
19437;DHT22;9854;50.968;4.168;2022-12-10T01:06:27;0.90;99.90
19437;DHT22;9854;50.968;4.168;2022-12-10T01:08:56;0.60;99.90
19437;DHT22;9854;50.968;4.168;2022-12-10T01:11:26;0.70;99.90
19437;DHT22;9854;50.968;4.168;2022-12-10T01:13:51;0.80;99.90
19437;DHT22;9854;50.968;4.168;2022-12-10T01:16:19;0.60;99.90
19437;DHT22;9854;50.968;4.168;2022-12-10T01:18:45;0.80;99.90
19437;DHT22;9854;50.968;4.168;2022-12-10T01:21:13;0.70;99.90
19437;DHT22;9854;50.968;4.168;2022-12-10T01:23:41;1.00;99.90
19437;DHT22;9854;50.968;4.168;2022-12-10T01:26:10;1.10;99.90
19437;DHT22;9854;50.968;4.168;2022-12-10T01:28:37;0.90;99.90
19437;DHT22;9854;50.968;4.168;2022-12-10T01:31:06;0.60;99.90
19437;DHT22;9854;50.968;4.168;2022-12-10T01:33:33;0.60;99.90
19437;DHT22;9854;50.968;4.168;2022-12-10T01:36:22;1.00;99.90
19437;DHT22;9854;50.968;4.168;2022-12-10T01:38:48;1.20;99.90
19437;DHT22;9854;50.968;4.168;2022-12-10T01:41:21;1.40;99.90
19437;DHT22;9854;50.968;4.168;2022-12-10T01:43:59;1.40;99.90
19437;DHT22;9854;50.968;4.168;2022-12-10T01:46:30;1.30;99.90
19437;DHT22;9854;50.968;4.168;2022-12-10T01:48:58;1.20;99.90
19437;DHT22;9854;50.968;4.168;2022-12-10T01:51:27;1.10;99.90
19437;DHT22;9854;50.968;4.168;2022-12-10T01:53:54;0.90;99.90
19437;DHT22;9854;50.968;4.168;2022-12-10T01:56:20;0.80;99.90
19437;DHT22;9854;50.968;4.168;2022-12-10T01:58:48;0.70;99.90
19437;DHT22;9854;50.968;4.168;2022-12-10T02:01:39;0.80;99.90
19437;DHT22;9854;50.968;4.168;2022-12-10T02:12:47;1.20;99.90
19437;DHT22;9854;50.968;4.168;2022-12-10T02:15:22;1.00;99.90
19437;DHT22;9854;50.968;4.168;2022-12-10T02:17:54;0.80;99.90
19437;DHT22;9854;50.968;4.168;2022-12-10T02:20:37;0.70;99.90
19437;DHT22;9854;50.968;4.168;2022-12-10T02:23:14;0.50;99.90
19437;DHT22;9854;50.968;4.168;2022-12-10T02:31:19;0.40;99.90
19437;DHT22;9854;50.968;4.168;2022-12-10T02:33:50;0.60;99.90
19437;DHT22;9854;50.968;4.168;2022-12-10T02:36:18;1.00;99.90
19437;DHT22;9854;50.968;4.168;2022-12-10T02:38:44;0.90;99.90
19437;DHT22;9854;50.968;4.168;2022-12-10T02:41:20;0.80;99.90
19437;DHT22;9854;50.968;4.168;2022-12-10T02:43:51;0.60;99.90
19437;DHT22;9854;50.968;4.168;2022-12-10T02:46:17;0.50;99.90
19437;DHT22;9854;50.968;4.168;2022-12-10T02:48:46;0.80;99.90
19437;DHT22;9854;50.968;4.168;2022-12-10T02:51:13;0.70;99.90
19437;DHT22;9854;50.968;4.168;2022-12-10T02:53:43;1.00;99.90
19437;DHT22;9854;50.968;4.168;2022-12-10T02:58:49;0.90;99.90
19437;DHT22;9854;50.968;4.168;2022-12-10T03:06:42;0.70;99.90
19437;DHT22;9854;50.968;4.168;2022-12-10T03:09:34;0.60;99.90
19437;DHT22;9854;50.968;4.168;2022-12-10T03:12:07;0.70;99.90
19437;DHT22;9854;50.968;4.168;2022-12-10T03:14:34;0.50;99.90
19437;DHT22;9854;50.968;4.168;2022-12-10T03:17:01;0.40;99.90
19437;DHT22;9854;50.968;4.168;2022-12-10T03:21:58;0.10;99.90
19437;DHT22;9854;50.968;4.168;2022-12-10T03:24:26;0.20;99.90
19437;DHT22;9854;50.968;4.168;2022-12-10T03:26:52;0.30;99.90
19437;DHT22;9854;50.968;4.168;2022-12-10T03:29:24;0.20;99.90
19437;DHT22;9854;50.968;4.168;2022-12-10T03:31:53;0.50;99.90
19437;DHT22;9854;50.968;4.168;2022-12-10T03:34:19;0.60;99.90
19437;DHT22;9854;50.968;4.168;2022-12-10T03:36:45;0.60;99.90
19437;DHT22;9854;50.968;4.168;2022-12-10T03:39:11;0.50;99.90
19437;DHT22;9854;50.968;4.168;2022-12-10T03:41:38;0.70;99.90
19437;DHT22;9854;50.968;4.168;2022-12-10T03:44:03;0.40;99.90
19437;DHT22;9854;50.968;4.168;2022-12-10T03:46:30;0.30;99.90
19437;DHT22;9854;50.968;4.168;2022-12-10T03:49:00;0.20;99.90
19437;DHT22;9854;50.968;4.168;2022-12-10T03:51:26;0.30;99.90
19437;DHT22;9854;50.968;4.168;2022-12-10T03:53:51;0.20;99.90
19437;DHT22;9854;50.968;4.168;2022-12-10T03:56:19;0.40;99.90
19437;DHT22;9854;50.968;4.168;2022-12-10T03:58:45;0.60;99.90
19437;DHT22;9854;50.968;4.168;2022-12-10T04:01:11;0.50;99.90
19437;DHT22;9854;50.968;4.168;2022-12-10T04:03:38;0.60;99.90
19437;DHT22;9854;50.968;4.168;2022-12-10T04:06:06;0.70;99.90
19437;DHT22;9854;50.968;4.168;2022-12-10T04:08:33;0.70;99.90
19437;DHT22;9854;50.968;4.168;2022-12-10T04:11:06;0.60;99.90
19437;DHT22;9854;50.968;4.168;2022-12-10T04:13:34;0.40;99.90
19437;DHT22;9854;50.968;4.168;2022-12-10T04:16:18;0.50;99.90
19437;DHT22;9854;50.968;4.168;2022-12-10T04:19:01;0.30;99.90
19437;DHT22;9854;50.968;4.168;2022-12-10T04:21:27;0.30;99.90
19437;DHT22;9854;50.968;4.168;2022-12-10T04:24:12;0.40;99.90
19437;DHT22;9854;50.968;4.168;2022-12-10T04:26:58;0.60;99.90
19437;DHT22;9854;50.968;4.168;2022-12-10T04:29:27;0.50;99.90
19437;DHT22;9854;50.968;4.168;2022-12-10T04:31:53;0.50;99.90
19437;DHT22;9854;50.968;4.168;2022-12-10T04:34:19;1.00;99.90
19437;DHT22;9854;50.968;4.168;2022-12-10T04:36:45;1.00;99.90
19437;DHT22;9854;50.968;4.168;2022-12-10T04:39:11;0.90;99.90
19437;DHT22;9854;50.968;4.168;2022-12-10T04:41:43;0.80;99.90
19437;DHT22;9854;50.968;4.168;2022-12-10T04:44:09;0.60;99.90
19437;DHT22;9854;50.968;4.168;2022-12-10T04:46:35;0.50;99.90
19437;DHT22;9854;50.968;4.168;2022-12-10T04:49:01;0.50;99.90
19437;DHT22;9854;50.968;4.168;2022-12-10T04:51:27;0.40;99.90
19437;DHT22;9854;50.968;4.168;2022-12-10T04:53:52;0.20;99.90
19437;DHT22;9854;50.968;4.168;2022-12-10T04:56:18;0.30;99.90
19437;DHT22;9854;50.968;4.168;2022-12-10T04:58:44;0.40;99.90
19437;DHT22;9854;50.968;4.168;2022-12-10T05:01:10;0.90;99.90
19437;DHT22;9854;50.968;4.168;2022-12-10T05:03:36;0.70;99.90
19437;DHT22;9854;50.968;4.168;2022-12-10T05:06:07;0.50;99.90
19437;DHT22;9854;50.968;4.168;2022-12-10T05:08:34;0.30;99.90
19437;DHT22;9854;50.968;4.168;2022-12-10T05:11:01;0.40;99.90
19437;DHT22;9854;50.968;4.168;2022-12-10T05:13:28;0.50;99.90
19437;DHT22;9854;50.968;4.168;2022-12-10T05:15:53;0.60;99.90
19437;DHT22;9854;50.968;4.168;2022-12-10T05:18:19;1.00;99.90
19437;DHT22;9854;50.968;4.168;2022-12-10T05:20:45;1.00;99.90
19437;DHT22;9854;50.968;4.168;2022-12-10T05:23:10;1.10;99.90
19437;DHT22;9854;50.968;4.168;2022-12-10T05:26:05;1.10;99.90
19437;DHT22;9854;50.968;4.168;2022-12-10T05:28:34;1.00;99.90
19437;DHT22;9854;50.968;4.168;2022-12-10T05:31:00;1.00;99.90
19437;DHT22;9854;50.968;4.168;2022-12-10T05:33:26;1.00;99.90
19437;DHT22;9854;50.968;4.168;2022-12-10T05:36:01;1.10;99.90
19437;DHT22;9854;50.968;4.168;2022-12-10T05:38:28;1.40;99.90
19437;DHT22;9854;50.968;4.168;2022-12-10T05:40:54;1.20;99.90
19437;DHT22;9854;50.968;4.168;2022-12-10T05:43:20;1.00;99.90
19437;DHT22;9854;50.968;4.168;2022-12-10T05:45:46;1.10;99.90
19437;DHT22;9854;50.968;4.168;2022-12-10T05:48:13;1.00;99.90
19437;DHT22;9854;50.968;4.168;2022-12-10T05:50:39;1.30;99.90
19437;DHT22;9854;50.968;4.168;2022-12-10T05:53:05;1.10;99.90
19437;DHT22;9854;50.968;4.168;2022-12-10T05:55:31;1.10;99.90
19437;DHT22;9854;50.968;4.168;2022-12-10T05:58:01;1.20;99.90
19437;DHT22;9854;50.968;4.168;2022-12-10T06:00:27;1.40;99.90
19437;DHT22;9854;50.968;4.168;2022-12-10T06:02:53;1.20;99.90
19437;DHT22;9854;50.968;4.168;2022-12-10T06:05:19;1.20;99.90
19437;DHT22;9854;50.968;4.168;2022-12-10T06:07:45;1.10;99.90
19437;DHT22;9854;50.968;4.168;2022-12-10T06:10:11;1.20;99.90
19437;DHT22;9854;50.968;4.168;2022-12-10T06:12:37;1.40;99.90
19437;DHT22;9854;50.968;4.168;2022-12-10T06:15:04;1.60;99.90
19437;DHT22;9854;50.968;4.168;2022-12-10T06:17:30;1.50;99.90
19437;DHT22;9854;50.968;4.168;2022-12-10T06:19:56;1.50;99.90
19437;DHT22;9854;50.968;4.168;2022-12-10T06:22:22;1.30;99.90
19437;DHT22;9854;50.968;4.168;2022-12-10T06:24:47;1.00;99.90
19437;DHT22;9854;50.968;4.168;2022-12-10T06:27:13;1.00;99.90
19437;DHT22;9854;50.968;4.168;2022-12-10T06:29:39;1.00;99.90
19437;DHT22;9854;50.968;4.168;2022-12-10T06:32:04;0.80;99.90
19437;DHT22;9854;50.968;4.168;2022-12-10T06:34:30;0.90;99.90
19437;DHT22;9854;50.968;4.168;2022-12-10T06:36:55;0.80;99.90
19437;DHT22;9854;50.968;4.168;2022-12-10T06:39:21;0.90;99.90
19437;DHT22;9854;50.968;4.168;2022-12-10T06:41:47;0.90;99.90
19437;DHT22;9854;50.968;4.168;2022-12-10T06:44:12;0.80;99.90
19437;DHT22;9854;50.968;4.168;2022-12-10T06:46:40;0.90;99.90
19437;DHT22;9854;50.968;4.168;2022-12-10T06:49:07;0.80;99.90
19437;DHT22;9854;50.968;4.168;2022-12-10T06:51:33;0.80;99.90
19437;DHT22;9854;50.968;4.168;2022-12-10T06:53:58;0.60;99.90
19437;DHT22;9854;50.968;4.168;2022-12-10T06:56:24;0.50;99.90
19437;DHT22;9854;50.968;4.168;2022-12-10T06:58:50;0.50;99.90
19437;DHT22;9854;50.968;4.168;2022-12-10T07:01:21;0.60;99.90
19437;DHT22;9854;50.968;4.168;2022-12-10T07:03:54;0.50;99.90
19437;DHT22;9854;50.968;4.168;2022-12-10T07:06:20;0.40;99.90
19437;DHT22;9854;50.968;4.168;2022-12-10T07:08:47;0.40;99.90
19437;DHT22;9854;50.968;4.168;2022-12-10T07:11:15;0.50;99.90
19437;DHT22;9854;50.968;4.168;2022-12-10T07:13:41;0.50;99.90
19437;DHT22;9854;50.968;4.168;2022-12-10T07:16:21;0.50;99.90
19437;DHT22;9854;50.968;4.168;2022-12-10T07:18:48;0.30;99.90
19437;DHT22;9854;50.968;4.168;2022-12-10T07:21:23;0.40;99.90
19437;DHT22;9854;50.968;4.168;2022-12-10T07:23:53;0.40;99.90
19437;DHT22;9854;50.968;4.168;2022-12-10T07:26:20;0.30;99.90
19437;DHT22;9854;50.968;4.168;2022-12-10T07:28:46;0.40;99.90
19437;DHT22;9854;50.968;4.168;2022-12-10T07:31:12;0.30;99.90
19437;DHT22;9854;50.968;4.168;2022-12-10T07:33:38;0.30;99.90
19437;DHT22;9854;50.968;4.168;2022-12-10T07:36:06;0.30;99.90
19437;DHT22;9854;50.968;4.168;2022-12-10T07:38:32;0.40;99.90
19437;DHT22;9854;50.968;4.168;2022-12-10T07:41:01;0.30;99.90
19437;DHT22;9854;50.968;4.168;2022-12-10T07:43:27;0.40;99.90
19437;DHT22;9854;50.968;4.168;2022-12-10T07:45:52;0.50;99.90
19437;DHT22;9854;50.968;4.168;2022-12-10T07:48:18;0.30;99.90
19437;DHT22;9854;50.968;4.168;2022-12-10T07:50:44;0.40;99.90
19437;DHT22;9854;50.968;4.168;2022-12-10T07:53:09;0.70;99.90
19437;DHT22;9854;50.968;4.168;2022-12-10T07:55:35;0.60;99.90
19437;DHT22;9854;50.968;4.168;2022-12-10T07:58:00;0.70;99.90
19437;DHT22;9854;50.968;4.168;2022-12-10T08:00:26;0.80;99.90
19437;DHT22;9854;50.968;4.168;2022-12-10T08:02:52;0.80;99.90
19437;DHT22;9854;50.968;4.168;2022-12-10T08:05:17;1.00;99.90
19437;DHT22;9854;50.968;4.168;2022-12-10T08:07:43;0.90;99.90
19437;DHT22;9854;50.968;4.168;2022-12-10T08:10:08;0.90;99.90
19437;DHT22;9854;50.968;4.168;2022-12-10T08:12:34;0.70;99.90
19437;DHT22;9854;50.968;4.168;2022-12-10T08:15:00;0.60;99.90
19437;DHT22;9854;50.968;4.168;2022-12-10T08:17:27;1.00;99.90
19437;DHT22;9854;50.968;4.168;2022-12-10T08:19:53;1.20;99.90
19437;DHT22;9854;50.968;4.168;2022-12-10T08:22:20;1.30;99.90
19437;DHT22;9854;50.968;4.168;2022-12-10T08:24:46;1.40;99.90
19437;DHT22;9854;50.968;4.168;2022-12-10T08:27:12;1.40;99.90
19437;DHT22;9854;50.968;4.168;2022-12-10T08:29:37;1.30;99.90
19437;DHT22;9854;50.968;4.168;2022-12-10T08:32:03;1.50;99.90
19437;DHT22;9854;50.968;4.168;2022-12-10T08:34:28;1.60;99.90
19437;DHT22;9854;50.968;4.168;2022-12-10T08:36:54;1.30;99.90
19437;DHT22;9854;50.968;4.168;2022-12-10T08:39:20;1.10;99.90
19437;DHT22;9854;50.968;4.168;2022-12-10T08:41:46;1.00;99.90
19437;DHT22;9854;50.968;4.168;2022-12-10T08:44:12;0.80;99.90
19437;DHT22;9854;50.968;4.168;2022-12-10T08:46:38;0.70;99.90
19437;DHT22;9854;50.968;4.168;2022-12-10T08:49:04;0.70;99.90
19437;DHT22;9854;50.968;4.168;2022-12-10T08:51:30;0.70;99.90
19437;DHT22;9854;50.968;4.168;2022-12-10T08:53:55;0.80;99.90
19437;DHT22;9854;50.968;4.168;2022-12-10T08:56:21;0.80;99.90
19437;DHT22;9854;50.968;4.168;2022-12-10T08:58:47;0.80;99.90
19437;DHT22;9854;50.968;4.168;2022-12-10T09:01:16;0.80;99.90
19437;DHT22;9854;50.968;4.168;2022-12-10T09:03:42;0.80;99.90
19437;DHT22;9854;50.968;4.168;2022-12-10T09:06:14;0.90;99.90
19437;DHT22;9854;50.968;4.168;2022-12-10T09:08:40;1.00;99.90
19437;DHT22;9854;50.968;4.168;2022-12-10T09:11:31;0.90;99.90
19437;DHT22;9854;50.968;4.168;2022-12-10T09:13:57;0.90;99.90
19437;DHT22;9854;50.968;4.168;2022-12-10T09:16:28;0.90;99.90
19437;DHT22;9854;50.968;4.168;2022-12-10T09:18:54;0.80;99.90
19437;DHT22;9854;50.968;4.168;2022-12-10T09:21:20;0.90;99.90
19437;DHT22;9854;50.968;4.168;2022-12-10T09:23:46;1.10;99.90
19437;DHT22;9854;50.968;4.168;2022-12-10T09:26:15;1.40;99.90
19437;DHT22;9854;50.968;4.168;2022-12-10T09:28:42;1.30;99.90
19437;DHT22;9854;50.968;4.168;2022-12-10T09:31:09;1.10;99.90
19437;DHT22;9854;50.968;4.168;2022-12-10T09:33:35;1.20;99.90
19437;DHT22;9854;50.968;4.168;2022-12-10T09:36:06;1.50;99.90
19437;DHT22;9854;50.968;4.168;2022-12-10T09:38:34;1.60;99.90
19437;DHT22;9854;50.968;4.168;2022-12-10T09:46:35;1.40;99.90
19437;DHT22;9854;50.968;4.168;2022-12-10T09:49:17;1.50;99.90
19437;DHT22;9854;50.968;4.168;2022-12-10T09:51:47;1.60;99.90
19437;DHT22;9854;50.968;4.168;2022-12-10T09:56:55;1.60;99.90
19437;DHT22;9854;50.968;4.168;2022-12-10T09:59:28;1.80;99.90
19437;DHT22;9854;50.968;4.168;2022-12-10T10:02:30;1.80;99.90
19437;DHT22;9854;50.968;4.168;2022-12-10T10:05:21;1.60;99.90
19437;DHT22;9854;50.968;4.168;2022-12-10T10:07:51;1.90;99.90
19437;DHT22;9854;50.968;4.168;2022-12-10T10:10:30;1.90;99.90
19437;DHT22;9854;50.968;4.168;2022-12-10T10:13:27;2.20;99.90
19437;DHT22;9854;50.968;4.168;2022-12-10T10:15:54;2.40;99.90
19437;DHT22;9854;50.968;4.168;2022-12-10T10:18:28;2.30;99.90
19437;DHT22;9854;50.968;4.168;2022-12-10T10:20:55;2.40;99.90
19437;DHT22;9854;50.968;4.168;2022-12-10T10:23:21;2.30;99.90
19437;DHT22;9854;50.968;4.168;2022-12-10T10:25:47;2.30;99.90
19437;DHT22;9854;50.968;4.168;2022-12-10T10:28:21;2.40;99.90
19437;DHT22;9854;50.968;4.168;2022-12-10T10:30:49;2.60;99.90
19437;DHT22;9854;50.968;4.168;2022-12-10T10:33:17;2.40;99.90
19437;DHT22;9854;50.968;4.168;2022-12-10T10:35:46;2.40;99.90
19437;DHT22;9854;50.968;4.168;2022-12-10T10:38:22;2.20;99.90
19437;DHT22;9854;50.968;4.168;2022-12-10T10:40:51;1.90;99.90
19437;DHT22;9854;50.968;4.168;2022-12-10T10:45:58;2.00;99.90
19437;DHT22;9854;50.968;4.168;2022-12-10T10:48:26;2.00;99.90
19437;DHT22;9854;50.968;4.168;2022-12-10T10:50:55;2.10;99.90
19437;DHT22;9854;50.968;4.168;2022-12-10T10:53:29;2.30;99.90
19437;DHT22;9854;50.968;4.168;2022-12-10T10:56:05;2.40;99.90
19437;DHT22;9854;50.968;4.168;2022-12-10T10:58:32;2.40;99.90
19437;DHT22;9854;50.968;4.168;2022-12-10T11:01:02;2.30;99.90
19437;DHT22;9854;50.968;4.168;2022-12-10T11:03:30;2.40;99.90
19437;DHT22;9854;50.968;4.168;2022-12-10T11:05:57;2.50;99.90
19437;DHT22;9854;50.968;4.168;2022-12-10T11:08:25;2.50;99.90
19437;DHT22;9854;50.968;4.168;2022-12-10T11:11:05;2.60;99.90
19437;DHT22;9854;50.968;4.168;2022-12-10T11:13:34;2.60;99.90
19437;DHT22;9854;50.968;4.168;2022-12-10T11:16:18;2.60;99.90
19437;DHT22;9854;50.968;4.168;2022-12-10T11:19:03;2.50;99.90
19437;DHT22;9854;50.968;4.168;2022-12-10T11:21:33;2.50;99.90
19437;DHT22;9854;50.968;4.168;2022-12-10T11:24:00;2.20;99.90
19437;DHT22;9854;50.968;4.168;2022-12-10T11:30:17;2.00;99.90
19437;DHT22;9854;50.968;4.168;2022-12-10T11:46:14;2.20;99.90
19437;DHT22;9854;50.968;4.168;2022-12-10T11:48:50;2.10;99.90
19437;DHT22;9854;50.968;4.168;2022-12-10T11:51:45;2.10;99.90
19437;DHT22;9854;50.968;4.168;2022-12-10T12:00:03;2.80;99.90
19437;DHT22;9854;50.968;4.168;2022-12-10T12:03:06;2.60;99.90
19437;DHT22;9854;50.968;4.168;2022-12-10T12:14:31;2.50;99.90
19437;DHT22;9854;50.968;4.168;2022-12-10T12:19:47;2.50;99.90
19437;DHT22;9854;50.968;4.168;2022-12-10T12:22:23;2.60;99.90
19437;DHT22;9854;50.968;4.168;2022-12-10T12:24:59;2.80;99.90
19437;DHT22;9854;50.968;4.168;2022-12-10T12:27:41;2.70;99.90
19437;DHT22;9854;50.968;4.168;2022-12-10T12:30:16;2.70;99.90
19437;DHT22;9854;50.968;4.168;2022-12-10T12:32:51;2.60;99.90
19437;DHT22;9854;50.968;4.168;2022-12-10T12:41:02;3.10;99.90
19437;DHT22;9854;50.968;4.168;2022-12-10T12:43:52;3.30;99.90
19437;DHT22;9854;50.968;4.168;2022-12-10T12:46:38;3.20;99.90
19437;DHT22;9854;50.968;4.168;2022-12-10T12:49:21;3.00;99.90
19437;DHT22;9854;50.968;4.168;2022-12-10T12:54:36;3.10;99.90
19437;DHT22;9854;50.968;4.168;2022-12-10T12:57:30;2.90;99.90
19437;DHT22;9854;50.968;4.168;2022-12-10T13:00:03;2.80;99.90
19437;DHT22;9854;50.968;4.168;2022-12-10T13:05:36;2.90;99.90
19437;DHT22;9854;50.968;4.168;2022-12-10T13:10:57;2.90;99.90
19437;DHT22;9854;50.968;4.168;2022-12-10T13:13:40;2.70;99.90
19437;DHT22;9854;50.968;4.168;2022-12-10T13:22:03;3.00;99.90
19437;DHT22;9854;50.968;4.168;2022-12-10T13:29:56;2.80;99.90
19437;DHT22;9854;50.968;4.168;2022-12-10T13:42:34;2.80;99.90
19437;DHT22;9854;50.968;4.168;2022-12-10T13:53:46;3.00;99.90
19437;DHT22;9854;50.968;4.168;2022-12-10T13:59:12;3.00;99.90
19437;DHT22;9854;50.968;4.168;2022-12-10T14:01:52;3.10;99.90
19437;DHT22;9854;50.968;4.168;2022-12-10T14:06:52;3.40;99.90
19437;DHT22;9854;50.968;4.168;2022-12-10T14:09:24;3.30;99.90
19437;DHT22;9854;50.968;4.168;2022-12-10T14:12:01;3.10;99.90
19437;DHT22;9854;50.968;4.168;2022-12-10T14:14:57;3.10;99.90
19437;DHT22;9854;50.968;4.168;2022-12-10T14:17:31;3.20;99.90
19437;DHT22;9854;50.968;4.168;2022-12-10T14:19:57;3.30;99.90
19437;DHT22;9854;50.968;4.168;2022-12-10T14:22:37;3.20;99.90
19437;DHT22;9854;50.968;4.168;2022-12-10T14:25:05;3.10;99.90
19437;DHT22;9854;50.968;4.168;2022-12-10T14:27:33;3.00;99.90
19437;DHT22;9854;50.968;4.168;2022-12-10T14:30:04;3.00;99.90
19437;DHT22;9854;50.968;4.168;2022-12-10T14:32:34;3.20;99.90
19437;DHT22;9854;50.968;4.168;2022-12-10T14:35:04;3.40;99.90
19437;DHT22;9854;50.968;4.168;2022-12-10T14:37:33;3.30;99.90
19437;DHT22;9854;50.968;4.168;2022-12-10T14:40:00;3.30;99.90
19437;DHT22;9854;50.968;4.168;2022-12-10T14:42:27;3.20;99.90
19437;DHT22;9854;50.968;4.168;2022-12-10T14:45:02;3.20;99.90
19437;DHT22;9854;50.968;4.168;2022-12-10T14:47:37;3.50;99.90
19437;DHT22;9854;50.968;4.168;2022-12-10T14:50:06;3.30;99.90
19437;DHT22;9854;50.968;4.168;2022-12-10T14:52:41;3.50;99.90
19437;DHT22;9854;50.968;4.168;2022-12-10T14:55:16;3.70;99.90
19437;DHT22;9854;50.968;4.168;2022-12-10T14:57:47;3.50;99.90
19437;DHT22;9854;50.968;4.168;2022-12-10T15:02:44;3.60;99.90
19437;DHT22;9854;50.968;4.168;2022-12-10T15:05:20;3.70;99.90
19437;DHT22;9854;50.968;4.168;2022-12-10T15:10:35;3.70;99.90
19437;DHT22;9854;50.968;4.168;2022-12-10T15:13:02;3.70;99.90
19437;DHT22;9854;50.968;4.168;2022-12-10T15:15:30;3.80;99.90
19437;DHT22;9854;50.968;4.168;2022-12-10T15:18:12;3.70;99.90
19437;DHT22;9854;50.968;4.168;2022-12-10T15:28:39;3.30;99.90
19437;DHT22;9854;50.968;4.168;2022-12-10T15:34:21;3.00;99.90
19437;DHT22;9854;50.968;4.168;2022-12-10T15:37:00;3.00;99.90
19437;DHT22;9854;50.968;4.168;2022-12-10T15:39:30;3.00;99.90
19437;DHT22;9854;50.968;4.168;2022-12-10T15:42:03;3.10;99.90
19437;DHT22;9854;50.968;4.168;2022-12-10T15:44:40;3.40;99.90
19437;DHT22;9854;50.968;4.168;2022-12-10T15:47:25;3.60;99.90
19437;DHT22;9854;50.968;4.168;2022-12-10T15:49:53;3.70;99.90
19437;DHT22;9854;50.968;4.168;2022-12-10T15:54:48;3.60;99.90
19437;DHT22;9854;50.968;4.168;2022-12-10T15:57:22;3.60;99.90
19437;DHT22;9854;50.968;4.168;2022-12-10T15:59:50;3.40;99.90
19437;DHT22;9854;50.968;4.168;2022-12-10T16:02:37;3.30;99.90
19437;DHT22;9854;50.968;4.168;2022-12-10T16:05:24;3.50;99.90
19437;DHT22;9854;50.968;4.168;2022-12-10T16:07:53;3.40;99.90
19437;DHT22;9854;50.968;4.168;2022-12-10T16:10:20;3.40;99.90
19437;DHT22;9854;50.968;4.168;2022-12-10T16:12:49;3.70;99.90
19437;DHT22;9854;50.968;4.168;2022-12-10T16:15:21;3.70;99.90
19437;DHT22;9854;50.968;4.168;2022-12-10T16:17:50;3.50;99.90
19437;DHT22;9854;50.968;4.168;2022-12-10T16:20:34;3.80;99.90
19437;DHT22;9854;50.968;4.168;2022-12-10T16:23:00;3.90;99.90
19437;DHT22;9854;50.968;4.168;2022-12-10T16:25:28;3.80;99.90
19437;DHT22;9854;50.968;4.168;2022-12-10T16:27:54;3.50;99.90
19437;DHT22;9854;50.968;4.168;2022-12-10T16:30:23;3.50;99.90
19437;DHT22;9854;50.968;4.168;2022-12-10T16:32:49;3.50;99.90
19437;DHT22;9854;50.968;4.168;2022-12-10T16:35:15;3.60;99.90
19437;DHT22;9854;50.968;4.168;2022-12-10T16:37:45;3.60;99.90
19437;DHT22;9854;50.968;4.168;2022-12-10T16:40:13;3.50;99.90
19437;DHT22;9854;50.968;4.168;2022-12-10T16:42:39;3.40;99.90
19437;DHT22;9854;50.968;4.168;2022-12-10T16:45:27;3.40;99.90
19437;DHT22;9854;50.968;4.168;2022-12-10T16:47:53;3.20;99.90
19437;DHT22;9854;50.968;4.168;2022-12-10T16:50:20;3.20;99.90
19437;DHT22;9854;50.968;4.168;2022-12-10T16:52:46;3.40;99.90
19437;DHT22;9854;50.968;4.168;2022-12-10T16:55:15;3.50;99.90
19437;DHT22;9854;50.968;4.168;2022-12-10T16:57:42;3.60;99.90
19437;DHT22;9854;50.968;4.168;2022-12-10T17:00:10;3.60;99.90
19437;DHT22;9854;50.968;4.168;2022-12-10T17:02:36;3.60;99.90
19437;DHT22;9854;50.968;4.168;2022-12-10T17:05:02;3.40;99.90
19437;DHT22;9854;50.968;4.168;2022-12-10T17:07:28;3.50;99.90
19437;DHT22;9854;50.968;4.168;2022-12-10T17:09:53;3.60;99.90
19437;DHT22;9854;50.968;4.168;2022-12-10T17:12:19;3.70;99.90
19437;DHT22;9854;50.968;4.168;2022-12-10T17:14:45;3.90;99.90
19437;DHT22;9854;50.968;4.168;2022-12-10T17:17:13;3.90;99.90
19437;DHT22;9854;50.968;4.168;2022-12-10T17:19:39;3.80;99.90
19437;DHT22;9854;50.968;4.168;2022-12-10T17:22:06;3.90;99.90
19437;DHT22;9854;50.968;4.168;2022-12-10T17:24:32;4.00;99.90
19437;DHT22;9854;50.968;4.168;2022-12-10T17:27:03;4.00;99.90
19437;DHT22;9854;50.968;4.168;2022-12-10T17:29:31;3.80;99.90
19437;DHT22;9854;50.968;4.168;2022-12-10T17:31:58;3.70;99.90
19437;DHT22;9854;50.968;4.168;2022-12-10T17:34:23;3.60;99.90
19437;DHT22;9854;50.968;4.168;2022-12-10T17:36:50;3.80;99.90
19437;DHT22;9854;50.968;4.168;2022-12-10T17:39:18;3.70;99.90
19437;DHT22;9854;50.968;4.168;2022-12-10T17:41:44;3.40;99.90
19437;DHT22;9854;50.968;4.168;2022-12-10T17:44:10;3.30;99.90
19437;DHT22;9854;50.968;4.168;2022-12-10T17:46:36;3.30;99.90
19437;DHT22;9854;50.968;4.168;2022-12-10T17:49:02;3.50;99.90
19437;DHT22;9854;50.968;4.168;2022-12-10T17:51:28;3.40;99.90
19437;DHT22;9854;50.968;4.168;2022-12-10T17:53:54;3.30;99.90
19437;DHT22;9854;50.968;4.168;2022-12-10T17:56:22;3.40;99.90
19437;DHT22;9854;50.968;4.168;2022-12-10T17:58:50;3.40;99.90
19437;DHT22;9854;50.968;4.168;2022-12-10T18:01:18;3.50;99.90
19437;DHT22;9854;50.968;4.168;2022-12-10T18:03:44;3.70;99.90
19437;DHT22;9854;50.968;4.168;2022-12-10T18:08:39;3.60;99.90
19437;DHT22;9854;50.968;4.168;2022-12-10T18:11:04;3.70;99.90
19437;DHT22;9854;50.968;4.168;2022-12-10T18:13:30;3.50;99.90
19437;DHT22;9854;50.968;4.168;2022-12-10T18:15:56;3.40;99.90
19437;DHT22;9854;50.968;4.168;2022-12-10T18:18:22;3.20;99.90
19437;DHT22;9854;50.968;4.168;2022-12-10T18:20:48;3.20;99.90
19437;DHT22;9854;50.968;4.168;2022-12-10T18:23:13;3.40;99.90
19437;DHT22;9854;50.968;4.168;2022-12-10T18:25:42;3.30;99.90
19437;DHT22;9854;50.968;4.168;2022-12-10T18:31:16;3.30;99.90
19437;DHT22;9854;50.968;4.168;2022-12-10T18:33:46;3.30;99.90
19437;DHT22;9854;50.968;4.168;2022-12-10T18:36:20;3.40;99.90
19437;DHT22;9854;50.968;4.168;2022-12-10T18:38:46;3.60;99.90
19437;DHT22;9854;50.968;4.168;2022-12-10T18:41:14;3.70;99.90